Beecher Falls, VT (05902)

6:32 PM EDT on July 29, 2016 (GMT -0400)
Halls Stream Road, Pittsburg,NH | | Change Station

Elev 1161 ft 45.08 °N, 71.48 °W | Updated 4 seconds ago

Overcast
Overcast
71.4 °F
Feels Like 75 °F
N
0.4
Wind Variable Wind from NE
Gusts 2.5 mph

Today
High -- | Low -- °F
--% Chance of Precip.
Yesterday
High -- | Low -- °F
Precip. -- in
Pressure 29.91 in
Visibility 10.0 miles
Clouds Scattered Clouds 7000 ft
Overcast 8500 ft
Heat Index 75 °F
Dew Point 60 °F
Humidity 68%
Rainfall 0.00 in
Snow Depth Not available.
5:28 AM 8:15 PM
Waning Crescent, 18% visible
METAR KBML 292152Z AUTO 33006KT 10SM SCT070 OVC085 26/12 A2992 RMK AO2 SLP126 T02610117
Pressure 29.91 in
Visibility 10.0 miles
Clouds Scattered Clouds 7000 ft
Overcast 8500 ft
Heat Index 75 °F
Dew Point 60 °F
Humidity 68%
Rainfall 0.00 in
Snow Depth Not available.
5:28 AM 8:15 PM
Waning Crescent, 18% visible
METAR KBML 292152Z AUTO 33006KT 10SM SCT070 OVC085 26/12 A2992 RMK AO2 SLP126 T02610117

10-Day Weather Forecast

Almanac

Astronomy

Jul. 29, 2016 Rise Set
Actual Time
Civil Twilight
Nautical Twilight
Astronomical Twilight
Moon
Length of Visible Light
Length of Day
Tomorrow will be .
, % of the Moon is Illuminated

Today's Extremes

State Highs State Lows

Community

WunderPhotos

Upload Photos

1,928,436 photos uploaded!

WunderBlog® & News

Nearby

Air Quality

  Air Quality AQ Index Pollutant
Not available.

Snow Depth

Station Depth Elevation

Earthquake Activity

City Distance Mag. Time & Date
Minimum magnitude displayed is 2.5.

Coastal Water Temperatures

Place Temperature

Stations

Nearby Weather Stations

Station Location Temp. Windchill Dew Point Humidity Wind Precip. Elev Updated Type
                   

Watches & Warnings

There are currently no watches in effect.